Time;durP1;ratioP1;P1;durP2;ratioP2;P2;SDS_P1;SDS_P2;PMS_P1;PMS_P2;Temp;Humidity;BMP_temperature;BMP_pressure;BME280_temperature;BME280_humidity;BME280_pressure;Samples;Min_cycle;Max_cycle;Signal;HPM_P1;HPM_P2
2023/07/08 00:01:13;;;;;;;6.20;5.70;;;;;;;15.03;100.00;97240.53;4997567;28;20699;-64
2023/07/08 00:03:41;;;;;;;6.30;5.80;;;;;;;14.97;100.00;97241.38;4995776;28;20516;-63
2023/07/08 00:06:14;;;;;;;7.87;6.40;;;;;;;14.94;100.00;97246.28;4991349;28;20251;-63
2023/07/08 00:08:42;;;;;;;7.20;6.50;;;;;;;14.88;100.00;97246.13;4989090;28;20740;-61
2023/07/08 00:11:11;;;;;;;6.70;6.10;;;;;;;14.83;100.00;97250.44;4993335;28;20232;-62
2023/07/08 00:13:39;;;;;;;7.57;5.97;;;;;;;14.82;100.00;97238.13;4988166;28;20236;-63
2023/07/08 00:16:10;;;;;;;6.80;6.10;;;;;;;14.75;100.00;97246.97;5000770;28;20212;-62
2023/07/08 00:18:39;;;;;;;6.83;6.23;;;;;;;14.68;100.00;97237.31;4995681;28;20204;-62
2023/07/08 00:21:10;;;;;;;8.43;6.80;;;;;;;14.62;100.00;97236.31;4989155;28;20736;-61
2023/07/08 00:23:37;;;;;;;6.87;6.23;;;;;;;14.61;100.00;97226.66;4993901;28;20255;-62
2023/07/08 00:26:10;;;;;;;6.70;6.20;;;;;;;14.59;100.00;97228.72;4994407;28;20293;-60
2023/07/08 00:28:38;;;;;;;6.50;6.00;;;;;;;14.60;100.00;97222.38;4988812;28;20659;-63
2023/07/08 00:31:09;;;;;;;6.70;6.00;;;;;;;14.63;100.00;97227.28;4996175;28;20216;-63
2023/07/08 00:33:38;;;;;;;6.77;5.77;;;;;;;14.65;100.00;97229.72;4996092;28;20233;-61
2023/07/08 00:36:10;;;;;;;6.90;6.17;;;;;;;14.63;100.00;97224.63;4997560;28;20818;-62
2023/07/08 00:38:38;;;;;;;6.40;5.90;;;;;;;14.66;100.00;97229.53;4986352;28;20210;-61
2023/07/08 00:41:09;;;;;;;6.93;6.33;;;;;;;14.67;100.00;97222.34;4993377;28;20714;-62
2023/07/08 00:43:39;;;;;;;6.67;5.97;;;;;;;14.70;100.00;97221.91;4992533;28;20323;-62
2023/07/08 00:46:21;;;;;;;6.50;5.80;;;;;;;14.62;100.00;97228.31;4997079;28;20217;-63
2023/07/08 00:48:51;;;;;;;6.37;5.87;;;;;;;14.53;100.00;97218.88;4989720;28;20233;-62
2023/07/08 00:51:20;;;;;;;7.33;6.30;;;;;;;14.64;100.00;97238.75;4996147;28;20424;-61
2023/07/08 00:53:48;;;;;;;6.17;5.67;;;;;;;14.62;100.00;97236.31;4996279;28;20632;-63
2023/07/08 00:56:18;;;;;;;6.33;5.73;;;;;;;14.65;100.00;97243.88;4993286;28;20283;-63
2023/07/08 00:58:49;;;;;;;7.17;5.27;;;;;;;14.61;100.00;97238.13;4995624;28;20313;-63
2023/07/08 01:01:17;;;;;;;6.47;5.90;;;;;;;14.51;100.00;97236.94;5001273;28;20225;-63
2023/07/08 01:03:51;;;;;;;6.80;5.70;;;;;;;14.46;100.00;97240.22;4997986;28;20209;-62
2023/07/08 01:06:21;;;;;;;7.67;6.20;;;;;;;14.44;100.00;97234.28;4992808;28;20227;-63
2023/07/08 01:08:52;;;;;;;6.80;6.20;;;;;;;14.33;100.00;97238.41;5000176;28;20236;-63
2023/07/08 01:11:22;;;;;;;6.37;5.73;;;;;;;14.31;100.00;97248.44;4994242;28;20311;-60
2023/07/08 01:13:51;;;;;;;6.60;6.10;;;;;;;14.33;100.00;97246.41;4997921;28;20201;-64
2023/07/08 01:16:19;;;;;;;6.50;6.00;;;;;;;14.29;100.00;97245.97;4996573;28;20205;-62
2023/07/08 01:18:52;;;;;;;6.40;5.80;;;;;;;14.26;100.00;97245.59;4995414;28;20235;-63
2023/07/08 01:21:33;;;;;;;6.53;5.93;;;;;;;14.25;100.00;97250.06;4997085;28;20201;-61
2023/07/08 01:24:03;;;;;;;6.83;5.93;;;;;;;14.29;100.00;97251.31;4992110;28;20635;-62
2023/07/08 01:26:32;;;;;;;6.03;5.53;;;;;;;14.25;100.00;97241.28;4989508;28;20232;-62
2023/07/08 01:29:01;;;;;;;6.20;5.70;;;;;;;14.21;100.00;97237.41;4993551;28;20197;-59
2023/07/08 01:31:29;;;;;;;5.97;5.47;;;;;;;14.22;100.00;97239.03;4998417;28;20593;-61
2023/07/08 01:33:56;;;;;;;6.97;6.27;;;;;;;14.19;100.00;97234.91;5000145;28;20238;-61
2023/07/08 01:36:24;;;;;;;7.10;6.50;;;;;;;14.13;100.00;97231.22;4988276;28;20668;-62
2023/07/08 01:38:53;;;;;;;7.80;7.20;;;;;;;14.09;100.00;97226.53;4995858;28;20205;-63
2023/07/08 01:41:22;;;;;;;6.63;6.13;;;;;;;14.08;100.00;97227.56;4990325;28;20300;-63
2023/07/08 01:43:49;;;;;;;6.93;6.37;;;;;;;14.07;100.00;97224.06;4999270;28;20296;-62
2023/07/08 01:46:20;;;;;;;7.13;6.43;;;;;;;14.08;100.00;97225.69;4999625;28;20620;-63
2023/07/08 01:48:52;;;;;;;7.10;6.57;;;;;;;14.05;100.00;97226.09;4996010;28;20523;-63
2023/07/08 01:51:20;;;;;;;7.80;7.10;;;;;;;14.07;100.00;97231.25;4992866;28;20232;-63
2023/07/08 01:53:48;;;;;;;7.17;6.47;;;;;;;14.01;100.00;97228.34;4992751;28;20292;-64
2023/07/08 01:56:16;;;;;;;8.13;7.33;;;;;;;14.04;100.00;97217.31;4993719;28;20201;-62
2023/07/08 01:58:45;;;;;;;7.73;6.97;;;;;;;14.01;100.00;97223.03;4993555;28;20201;-63
2023/07/08 02:01:12;;;;;;;8.70;6.83;;;;;;;13.94;100.00;97219.53;4999857;28;20251;-63
2023/07/08 02:03:40;;;;;;;9.33;6.63;;;;;;;13.87;100.00;97219.56;4997566;28;20328;-62
2023/07/08 02:06:11;;;;;;;7.87;7.13;;;;;;;13.82;100.00;97214.00;4994308;28;20205;-62
2023/07/08 02:08:39;;;;;;;6.67;6.03;;;;;;;13.81;100.00;97208.91;4990221;28;20256;-62
2023/07/08 02:11:06;;;;;;;7.47;6.73;;;;;;;13.67;100.00;97216.88;4993720;28;20249;-62
2023/07/08 02:13:34;;;;;;;7.70;7.07;;;;;;;13.59;100.00;97223.22;4992799;28;20311;-65
2023/07/08 02:16:03;;;;;;;7.67;6.97;;;;;;;13.58;100.00;97221.56;4994063;28;20215;-63
2023/07/08 02:18:32;;;;;;;8.10;6.97;;;;;;;13.53;100.00;97215.19;4996439;28;20635;-63
2023/07/08 02:20:59;;;;;;;7.37;6.50;;;;;;;13.57;100.00;97227.09;4995600;28;20194;-63
2023/07/08 02:23:27;;;;;;;7.87;6.87;;;;;;;13.56;100.00;97220.94;4993484;28;20233;-63
2023/07/08 02:25:56;;;;;;;8.80;7.90;;;;;;;13.54;100.00;97220.34;4994510;28;20209;-62
2023/07/08 02:28:23;;;;;;;7.90;7.27;;;;;;;13.54;100.00;97222.16;4995035;28;20212;-62
2023/07/08 02:30:51;;;;;;;7.50;6.90;;;;;;;13.44;100.00;97214.56;4996596;28;20307;-64
2023/07/08 02:33:20;;;;;;;7.53;6.73;;;;;;;13.43;100.00;97207.59;4998639;28;20312;-62
2023/07/08 02:35:48;;;;;;;7.00;6.50;;;;;;;13.37;100.00;97211.03;4991369;28;20642;-62
2023/07/08 02:38:16;;;;;;;7.37;6.70;;;;;;;13.31;100.00;97216.16;4995356;28;20258;-61
2023/07/08 02:40:44;;;;;;;6.73;6.13;;;;;;;13.36;100.00;97220.03;4990183;28;20208;-63
2023/07/08 02:43:11;;;;;;;7.93;7.23;;;;;;;13.26;100.00;97225.78;4993716;28;20328;-61
2023/07/08 02:45:39;;;;;;;8.23;6.83;;;;;;;13.19;100.00;97209.78;4994911;28;20201;-61
2023/07/08 02:48:06;;;;;;;7.63;7.00;;;;;;;13.22;100.00;97230.66;4998094;28;20255;-62
2023/07/08 02:50:35;;;;;;;7.97;7.37;;;;;;;13.21;100.00;97229.03;4994547;28;20206;-62
2023/07/08 02:53:03;;;;;;;8.10;7.40;;;;;;;13.27;100.00;97219.44;4990557;28;20252;-63
2023/07/08 02:55:31;;;;;;;8.90;6.87;;;;;;;13.25;100.00;97224.94;4995138;28;20295;-63
2023/07/08 02:57:59;;;;;;;8.63;7.43;;;;;;;13.17;100.00;97220.59;4992762;28;20217;-63
2023/07/08 03:00:26;;;;;;;7.13;6.40;;;;;;;13.14;100.00;97217.53;4997579;28;20209;-63
2023/07/08 03:02:54;;;;;;;6.97;6.43;;;;;;;13.14;100.00;97222.88;4997043;28;21666;-62
2023/07/08 03:05:22;;;;;;;8.23;7.43;;;;;;;13.14;100.00;97215.69;5000444;28;20288;-63
2023/07/08 03:07:50;;;;;;;9.17;7.53;;;;;;;13.13;100.00;97216.72;4990573;28;20308;-61
2023/07/08 03:10:18;;;;;;;7.23;6.63;;;;;;;13.09;100.00;97223.44;4992688;28;20271;-62
2023/07/08 03:12:46;;;;;;;8.17;7.37;;;;;;;13.01;100.00;97218.31;4987125;28;20320;-62
2023/07/08 03:15:13;;;;;;;7.13;6.53;;;;;;;13.02;100.00;97225.28;4995106;28;20236;-62
2023/07/08 03:17:41;;;;;;;6.90;6.40;;;;;;;12.99;100.00;97215.84;4997734;28;20201;-61
2023/07/08 03:20:10;;;;;;;8.67;7.73;;;;;;;12.93;100.00;97211.31;4998512;28;20197;-63
2023/07/08 03:22:38;;;;;;;7.80;7.00;;;;;;;12.84;100.00;97208.00;4993083;28;20992;-63
2023/07/08 03:25:09;;;;;;;11.13;7.40;;;;;;;12.83;100.00;97218.84;4987794;28;20232;-62
2023/07/08 03:27:36;;;;;;;7.20;6.53;;;;;;;12.82;100.00;97222.53;4990878;28;20299;-60
2023/07/08 03:30:05;;;;;;;8.43;7.63;;;;;;;12.85;100.00;97228.25;4994796;28;20236;-62
2023/07/08 03:32:32;;;;;;;9.93;7.40;;;;;;;12.83;100.00;97227.63;4998498;28;20239;-62
2023/07/08 03:35:01;;;;;;;8.17;7.57;;;;;;;12.87;100.00;97230.72;4989488;28;20209;-62
2023/07/08 03:37:28;;;;;;;8.23;7.43;;;;;;;12.87;100.00;97231.53;4989388;28;20212;-62
2023/07/08 03:39:56;;;;;;;7.37;6.77;;;;;;;12.76;100.00;97231.28;4993123;28;20296;-63
2023/07/08 03:42:25;;;;;;;7.80;7.00;;;;;;;12.79;100.00;97233.56;4992583;28;20295;-62
2023/07/08 03:44:53;;;;;;;8.90;7.40;;;;;;;12.70;100.00;97233.72;4995433;28;20252;-62
2023/07/08 03:47:20;;;;;;;8.10;7.33;;;;;;;12.74;100.00;97234.97;4994909;28;20515;-63
2023/07/08 03:49:48;;;;;;;8.77;7.53;;;;;;;12.70;100.00;97235.53;4988992;28;20751;-63
2023/07/08 03:52:16;;;;;;;7.73;7.23;;;;;;;12.70;100.00;97233.72;4999152;28;20256;-62
2023/07/08 03:54:45;;;;;;;7.90;7.23;;;;;;;12.64;100.00;97245.13;4991666;28;20293;-63
2023/07/08 03:57:12;;;;;;;8.60;7.53;;;;;;;12.64;100.00;97246.97;4992261;28;20224;-62
2023/07/08 03:59:41;;;;;;;7.80;7.20;;;;;;;12.64;100.00;97244.31;4995437;28;20259;-62
2023/07/08 04:02:09;;;;;;;8.13;7.37;;;;;;;12.62;100.00;97244.50;4997601;28;20229;-62
2023/07/08 04:04:37;;;;;;;9.23;8.00;;;;;;;12.58;100.00;97240.59;4994821;28;20299;-62
2023/07/08 04:07:05;;;;;;;7.87;7.00;;;;;;;12.67;100.00;97241.25;4991053;28;20200;-61
2023/07/08 04:09:32;;;;;;;8.73;7.97;;;;;;;12.74;100.00;97245.59;4997211;28;20764;-63
2023/07/08 04:12:00;;;;;;;18.63;11.57;;;;;;;12.85;100.00;97238.09;4984597;28;20312;-64
2023/07/08 04:14:27;;;;;;;8.07;7.27;;;;;;;12.89;100.00;97239.31;4998406;28;20306;-63
2023/07/08 04:16:58;;;;;;;8.73;7.93;;;;;;;12.74;100.00;97242.94;4994406;28;20278;-63
2023/07/08 04:19:27;;;;;;;8.97;8.00;;;;;;;12.65;100.00;97252.06;4992946;28;20217;-64
2023/07/08 04:21:54;;;;;;;8.33;7.53;;;;;;;12.54;100.00;97247.31;4994397;28;20229;-65
2023/07/08 04:24:22;;;;;;;8.47;7.67;;;;;;;12.45;100.00;97249.28;4995349;28;20224;-64
2023/07/08 04:26:50;;;;;;;8.10;7.40;;;;;;;12.51;100.00;97261.00;4992821;28;20235;-64
2023/07/08 04:29:19;;;;;;;8.20;7.50;;;;;;;12.52;100.00;97260.81;4999790;28;20650;-63
2023/07/08 04:31:48;;;;;;;9.10;8.20;;;;;;;12.53;100.00;97265.09;5001987;28;20285;-61
2023/07/08 04:34:17;;;;;;;7.70;6.93;;;;;;;12.53;100.00;97258.97;5007151;28;20236;-64
2023/07/08 04:36:45;;;;;;;9.07;8.17;;;;;;;12.62;100.00;97256.97;4991114;28;20294;-62
2023/07/08 04:39:13;;;;;;;8.57;7.63;;;;;;;12.62;100.00;97255.13;5000610;28;20254;-61
2023/07/08 04:41:43;;;;;;;9.30;8.40;;;;;;;12.71;100.00;97264.59;4998951;28;20232;-63
2023/07/08 04:44:11;;;;;;;8.63;7.73;;;;;;;12.77;100.00;97259.53;5004313;28;20275;-64
2023/07/08 04:46:41;;;;;;;8.70;8.00;;;;;;;12.87;100.00;97259.97;5002208;28;20196;-63
2023/07/08 04:49:10;;;;;;;9.03;7.60;;;;;;;12.94;100.00;97246.72;5003257;28;20204;-63
2023/07/08 04:51:39;;;;;;;8.67;7.87;;;;;;;13.11;100.00;97248.00;4992202;28;20248;-63
2023/07/08 04:54:07;;;;;;;8.27;7.47;;;;;;;13.15;100.00;97245.78;4999710;28;20644;-63
2023/07/08 04:56:38;;;;;;;8.00;7.40;;;;;;;13.31;100.00;97247.28;4996377;28;20307;-63
2023/07/08 04:59:06;;;;;;;9.47;7.57;;;;;;;13.44;100.00;97250.00;5002236;28;20205;-62
2023/07/08 05:04:17;;;;;;;8.10;7.40;;;;;;;13.77;100.00;97248.41;5026402;23;20242;-67
2023/07/08 05:06:46;;;;;;;7.90;7.40;;;;;;;13.94;100.00;97245.38;4943416;28;20266;-66
2023/07/08 05:09:14;;;;;;;8.13;7.53;;;;;;;14.09;100.00;97247.84;4964549;28;20613;-64
2023/07/08 05:11:44;;;;;;;8.47;7.57;;;;;;;14.28;100.00;97249.66;4957727;28;20207;-64
2023/07/08 05:14:12;;;;;;;7.60;6.90;;;;;;;14.38;100.00;97249.25;4954183;28;20290;-64
2023/07/08 05:16:40;;;;;;;7.23;6.53;;;;;;;14.60;100.00;97243.69;4959378;28;20198;-64
2023/07/08 05:19:08;;;;;;;8.07;7.47;;;;;;;14.74;100.00;97253.31;4962667;28;20208;-64
2023/07/08 05:21:38;;;;;;;7.27;6.30;;;;;;;14.86;100.00;97236.66;4961241;28;20301;-66
2023/07/08 05:24:07;;;;;;;8.23;7.53;;;;;;;15.02;100.00;97230.03;4965419;28;20268;-63
2023/07/08 05:26:35;;;;;;;7.10;6.57;;;;;;;15.16;100.00;97239.66;4960979;28;20744;-62
2023/07/08 05:29:02;;;;;;;7.73;6.97;;;;;;;15.35;100.00;97239.75;4961340;28;20297;-63
2023/07/08 05:31:30;;;;;;;7.10;6.60;;;;;;;15.48;100.00;97242.34;4959744;28;20206;-67
2023/07/08 05:34:13;;;;;;;7.67;6.87;;;;;;;15.77;100.00;97242.78;4960199;28;20233;-63
2023/07/08 05:36:41;;;;;;;7.97;7.33;;;;;;;15.84;100.00;97239.25;4960816;28;20294;-63
2023/07/08 05:39:10;;;;;;;8.03;7.33;;;;;;;15.99;100.00;97239.81;4959371;28;20633;-66
2023/07/08 05:41:37;;;;;;;7.70;7.10;;;;;;;16.06;100.00;97245.09;4961137;28;20249;-65
2023/07/08 05:44:05;;;;;;;7.23;6.63;;;;;;;16.26;100.00;97241.44;4955221;28;20238;-63
2023/07/08 05:46:33;;;;;;;8.27;7.57;;;;;;;16.44;100.00;97241.47;4962057;28;20230;-66
2023/07/08 05:49:00;;;;;;;7.00;6.40;;;;;;;16.62;100.00;97243.34;4958469;28;20237;-64
2023/07/08 05:51:28;;;;;;;7.90;7.27;;;;;;;16.75;100.00;97247.75;4964741;28;20234;-63
2023/07/08 05:53:56;;;;;;;7.80;7.13;;;;;;;16.78;100.00;97257.19;4962608;28;20254;-64
2023/07/08 05:56:25;;;;;;;7.07;6.47;;;;;;;16.93;100.00;97260.31;4962019;28;20638;-62
2023/07/08 05:58:53;;;;;;;7.53;6.93;;;;;;;17.04;100.00;97263.31;4962222;28;20314;-63
2023/07/08 06:01:20;;;;;;;7.87;6.87;;;;;;;17.28;100.00;97264.28;4961001;28;20697;-63
2023/07/08 06:03:49;;;;;;;6.77;6.27;;;;;;;17.43;100.00;97252.34;4959419;28;20223;-61
2023/07/08 06:06:17;;;;;;;7.40;6.70;;;;;;;17.52;100.00;97253.66;4963162;28;20217;-64
2023/07/08 06:08:45;;;;;;;7.50;6.90;;;;;;;17.76;100.00;97265.25;4952140;28;20301;-63
2023/07/08 06:11:13;;;;;;;7.43;6.83;;;;;;;17.87;100.00;97263.69;4962392;28;20210;-63
2023/07/08 06:13:42;;;;;;;7.27;6.13;;;;;;;17.91;100.00;97264.84;4956316;28;20253;-63
2023/07/08 06:16:10;;;;;;;6.20;5.80;;;;;;;18.27;100.00;97277.53;4960771;28;20225;-62
2023/07/08 06:18:37;;;;;;;6.53;6.03;;;;;;;18.51;100.00;97264.94;4960239;28;20210;-64
2023/07/08 06:21:06;;;;;;;6.60;6.13;;;;;;;18.74;100.00;97269.50;4958952;28;20229;-64
2023/07/08 06:23:34;;;;;;;7.03;6.07;;;;;;;19.02;100.00;97267.19;4957886;28;20218;-66
2023/07/08 06:26:02;;;;;;;6.83;6.30;;;;;;;19.24;100.00;97270.03;4962646;28;20697;-64
2023/07/08 06:28:29;;;;;;;6.47;5.97;;;;;;;19.40;100.00;97265.78;4957737;28;20273;-63
2023/07/08 06:30:58;;;;;;;6.33;5.83;;;;;;;19.31;100.00;97251.09;4955274;28;20772;-65
2023/07/08 06:33:26;;;;;;;6.40;5.90;;;;;;;19.61;100.00;97275.06;4961564;28;20226;-64
2023/07/08 06:35:54;;;;;;;6.60;6.10;;;;;;;19.83;100.00;97273.56;4958401;28;21152;-65
2023/07/08 06:38:22;;;;;;;6.50;5.93;;;;;;;19.91;100.00;97263.25;4959228;28;20241;-66
2023/07/08 06:40:49;;;;;;;6.57;6.00;;;;;;;20.02;100.00;97258.06;4960817;28;20291;-63
2023/07/08 06:43:17;;;;;;;6.23;5.63;;;;;;;20.30;100.00;97254.47;4956855;28;20222;-67
2023/07/08 06:45:45;;;;;;;5.60;5.20;;;;;;;20.53;100.00;97253.47;4960125;28;20302;-63
2023/07/08 06:48:14;;;;;;;6.20;5.63;;;;;;;20.64;95.08;97250.91;4958739;28;20210;-64
2023/07/08 06:50:43;;;;;;;5.90;5.50;;;;;;;20.89;94.15;97255.06;4956667;28;20210;-63
2023/07/08 06:53:10;;;;;;;7.47;5.50;;;;;;;21.04;92.77;97244.50;4960137;28;20234;-63
2023/07/08 06:55:38;;;;;;;5.67;5.17;;;;;;;21.23;89.74;97249.56;4958884;28;20225;-66
2023/07/08 06:58:06;;;;;;;5.40;4.90;;;;;;;21.25;86.13;97248.25;4959243;28;20208;-64
2023/07/08 07:00:33;;;;;;;6.30;5.80;;;;;;;21.25;80.41;97252.81;4959155;28;20734;-64
2023/07/08 07:03:01;;;;;;;5.83;5.33;;;;;;;21.37;79.52;97244.59;4959775;28;20792;-64
2023/07/08 07:05:30;;;;;;;5.07;4.77;;;;;;;21.48;83.60;97243.63;4955877;28;20245;-64
2023/07/08 07:07:58;;;;;;;8.10;7.40;;;;;;;21.59;72.29;97244.56;4953863;28;20238;-64
2023/07/08 07:10:26;;;;;;;5.23;4.87;;;;;;;21.90;72.98;97246.75;4960964;28;20218;-62
2023/07/08 07:12:54;;;;;;;5.20;4.80;;;;;;;22.14;71.65;97238.34;4960204;28;20284;-63
2023/07/08 07:15:22;;;;;;;5.17;4.77;;;;;;;22.17;66.02;97237.81;4959046;28;20297;-63
2023/07/08 07:17:49;;;;;;;5.63;5.13;;;;;;;22.24;65.93;97239.25;4953359;28;20765;-63
2023/07/08 07:20:17;;;;;;;6.20;5.70;;;;;;;22.43;61.92;97236.13;4958416;28;20257;-66
2023/07/08 07:22:46;;;;;;;5.53;5.13;;;;;;;22.56;61.81;97226.78;4952100;28;20210;-65
2023/07/08 07:25:14;;;;;;;5.33;4.87;;;;;;;22.60;60.91;97244.09;4960262;28;20301;-66
2023/07/08 07:27:41;;;;;;;4.90;4.60;;;;;;;22.76;62.97;97245.00;4959706;28;20641;-66
2023/07/08 07:30:12;;;;;;;5.27;4.77;;;;;;;22.89;58.67;97243.72;4956567;28;20305;-63
2023/07/08 07:32:40;;;;;;;4.90;4.53;;;;;;;23.20;61.93;97237.63;4956058;28;20812;-64
2023/07/08 07:35:12;;;;;;;10.97;8.00;;;;;;;23.33;58.95;97242.59;4961045;28;20226;-64
2023/07/08 07:37:40;;;;;;;5.27;4.87;;;;;;;23.40;57.83;97235.03;4953395;28;20222;-62
2023/07/08 07:40:12;;;;;;;5.10;4.70;;;;;;;23.58;56.49;97234.81;4961858;28;20332;-62
2023/07/08 07:42:40;;;;;;;4.73;4.40;;;;;;;23.67;52.57;97234.00;4959255;28;20255;-63
2023/07/08 07:45:08;;;;;;;5.20;4.73;;;;;;;23.72;53.45;97233.19;4953959;28;20202;-63
2023/07/08 07:47:36;;;;;;;4.90;4.50;;;;;;;23.73;53.02;97229.41;4960752;28;20216;-64
2023/07/08 07:50:05;;;;;;;4.90;4.50;;;;;;;23.83;54.87;97223.22;4953635;28;20203;-66
2023/07/08 07:52:33;;;;;;;5.80;5.27;;;;;;;23.97;52.77;97237.81;4956132;28;20199;-66
2023/07/08 07:55:00;;;;;;;5.00;4.50;;;;;;;24.01;51.21;97229.19;4955900;28;20326;-62
2023/07/08 07:57:29;;;;;;;4.77;4.47;;;;;;;24.08;50.22;97225.13;4961233;28;20241;-61
2023/07/08 07:59:57;;;;;;;4.70;4.40;;;;;;;24.21;50.17;97223.78;4953592;28;20321;-65
2023/07/08 08:02:24;;;;;;;5.23;4.77;;;;;;;24.52;47.43;97225.63;4957487;28;20637;-64
2023/07/08 08:04:52;;;;;;;4.67;4.27;;;;;;;24.85;46.81;97226.13;4954260;28;20705;-63
2023/07/08 08:07:19;;;;;;;4.50;4.20;;;;;;;25.11;47.00;97232.25;4953884;28;20312;-65
2023/07/08 08:09:47;;;;;;;5.10;4.70;;;;;;;25.29;45.97;97238.16;4958448;28;20210;-63
2023/07/08 08:12:15;;;;;;;5.03;4.67;;;;;;;25.50;47.46;97240.78;4959795;28;20652;-64
2023/07/08 08:14:44;;;;;;;4.33;4.03;;;;;;;25.75;45.93;97247.16;4957401;28;20238;-65
2023/07/08 08:17:11;;;;;;;3.93;3.73;;;;;;;25.65;43.74;97248.00;4955089;28;20306;-64
2023/07/08 08:19:39;;;;;;;5.10;4.47;;;;;;;25.50;43.15;97257.06;4956154;28;20600;-66
2023/07/08 08:22:07;;;;;;;4.30;3.90;;;;;;;25.26;42.50;97246.84;4951673;28;20292;-67
2023/07/08 08:24:34;;;;;;;4.60;4.27;;;;;;;25.08;44.21;97251.78;4957727;28;20223;-63
2023/07/08 08:27:02;;;;;;;4.73;4.40;;;;;;;25.02;44.79;97247.47;4959910;28;21337;-64
2023/07/08 08:29:30;;;;;;;4.50;4.10;;;;;;;25.13;44.91;97248.25;4950670;28;20788;-65
2023/07/08 08:31:59;;;;;;;4.50;4.20;;;;;;;25.20;44.68;97247.97;4958256;28;20710;-64
2023/07/08 08:34:28;;;;;;;5.17;4.03;;;;;;;25.41;43.88;97249.47;4956753;28;20235;-64
2023/07/08 08:36:55;;;;;;;4.87;4.03;;;;;;;25.34;43.59;97253.56;4950677;28;20314;-66
2023/07/08 08:39:24;;;;;;;4.50;4.10;;;;;;;25.25;42.16;97247.94;4958713;28;20221;-63
2023/07/08 08:41:53;;;;;;;3.73;3.53;;;;;;;24.93;43.51;97247.22;4961531;28;20207;-63
2023/07/08 08:44:28;;;;;;;4.63;4.23;;;;;;;24.77;44.08;97249.16;4959399;28;20226;-63
2023/07/08 08:47:01;;;;;;;6.03;4.00;;;;;;;24.81;45.15;97249.44;4950027;28;20888;-64
2023/07/08 08:49:33;;;;;;;4.30;4.00;;;;;;;25.13;45.04;97243.63;4951176;28;20214;-64
2023/07/08 08:52:00;;;;;;;4.50;4.10;;;;;;;25.36;44.38;97245.97;4956286;28;20241;-65
2023/07/08 08:54:30;;;;;;;4.00;3.80;;;;;;;25.67;41.75;97243.13;4960802;28;20227;-63
2023/07/08 08:57:02;;;;;;;3.87;3.57;;;;;;;25.97;43.46;97244.00;4960782;28;20226;-64
2023/07/08 08:59:38;;;;;;;4.10;3.80;;;;;;;26.15;42.45;97246.06;4947769;28;20232;-66
2023/07/08 09:02:23;;;;;;;4.07;3.87;;;;;;;26.15;41.85;97242.50;4955636;28;20218;-67
2023/07/08 09:04:50;;;;;;;4.60;4.20;;;;;;;26.18;40.81;97247.41;4954556;28;20647;-65
2023/07/08 09:07:20;;;;;;;3.87;3.60;;;;;;;26.41;41.58;97236.88;4958672;28;20212;-64
2023/07/08 09:09:52;;;;;;;4.87;4.40;;;;;;;26.72;41.45;97242.81;4959407;28;20207;-65
2023/07/08 09:12:24;;;;;;;4.57;4.07;;;;;;;26.80;39.34;97237.84;4954746;28;20267;-64
2023/07/08 09:14:52;;;;;;;4.60;4.30;;;;;;;26.89;41.50;97235.34;4961007;28;20295;-65
2023/07/08 09:17:26;;;;;;;4.50;4.20;;;;;;;26.87;39.82;97232.91;4963905;28;20208;-65
2023/07/08 09:20:00;;;;;;;4.40;4.00;;;;;;;27.13;40.55;97225.28;4957515;28;20200;-65
2023/07/08 09:22:33;;;;;;;4.43;4.13;;;;;;;27.10;39.67;97236.72;4958710;28;20247;-64
2023/07/08 09:25:06;;;;;;;4.73;4.33;;;;;;;27.29;38.45;97228.59;4962901;28;20675;-64
2023/07/08 09:27:33;;;;;;;5.60;4.90;;;;;;;27.51;39.42;97232.69;4963989;28;20234;-64
2023/07/08 09:30:01;;;;;;;4.47;3.93;;;;;;;27.64;38.54;97225.69;4953059;28;20217;-64
2023/07/08 09:32:33;;;;;;;6.03;4.37;;;;;;;27.47;39.39;97228.09;4964328;28;20240;-63
2023/07/08 09:35:05;;;;;;;4.03;3.73;;;;;;;27.70;38.51;97224.50;4960647;28;20260;-65
2023/07/08 09:37:34;;;;;;;4.40;4.10;;;;;;;27.68;38.45;97224.00;4962891;28;20297;-64
2023/07/08 09:40:05;;;;;;;4.30;4.00;;;;;;;27.12;37.76;97220.94;4961631;28;20742;-64
2023/07/08 09:42:34;;;;;;;4.33;4.03;;;;;;;26.91;39.22;97224.97;4962737;28;20243;-65
2023/07/08 09:45:05;;;;;;;4.63;4.23;;;;;;;26.83;36.72;97223.66;4952170;28;20698;-64
2023/07/08 09:47:37;;;;;;;4.60;4.30;;;;;;;26.77;39.78;97224.84;4962555;28;20306;-64
2023/07/08 09:50:17;;;;;;;4.90;4.03;;;;;;;26.80;39.28;97225.06;4958735;28;20219;-64
2023/07/08 09:52:46;;;;;;;4.53;4.13;;;;;;;26.84;41.47;97228.88;4958127;28;20204;-63
2023/07/08 09:55:15;;;;;;;4.13;3.83;;;;;;;26.90;42.10;97232.34;4963063;28;20255;-65
2023/07/08 09:57:44;;;;;;;4.30;4.00;;;;;;;27.05;42.16;97225.88;4962371;28;21038;-65
2023/07/08 10:00:15;;;;;;;5.30;4.80;;;;;;;26.97;40.14;97226.53;4958212;28;20291;-64
2023/07/08 10:02:47;;;;;;;5.07;4.67;;;;;;;26.93;38.89;97225.50;4955814;28;20240;-65
2023/07/08 10:05:18;;;;;;;4.87;4.47;;;;;;;27.18;42.69;97223.59;4954557;28;20415;-65
2023/07/08 10:07:47;;;;;;;5.63;4.93;;;;;;;27.21;43.40;97225.72;4961015;28;20250;-64
2023/07/08 10:10:18;;;;;;;5.23;4.83;;;;;;;26.93;42.41;97228.22;4964355;28;20285;-64
2023/07/08 10:12:55;;;;;;;5.10;4.70;;;;;;;26.68;40.59;97230.09;4962363;28;20209;-64
2023/07/08 10:15:26;;;;;;;4.73;4.33;;;;;;;26.66;41.25;97237.72;4955492;28;20246;-63
2023/07/08 10:17:55;;;;;;;9.47;5.17;;;;;;;26.91;44.89;97239.41;4958207;28;20747;-65
2023/07/08 10:20:23;;;;;;;4.80;4.50;;;;;;;26.94;41.00;97244.25;4953076;28;20269;-64
2023/07/08 10:23:03;;;;;;;4.70;4.40;;;;;;;27.01;40.88;97238.44;4958690;28;20229;-65
2023/07/08 10:25:36;;;;;;;5.27;4.90;;;;;;;27.58;40.27;97241.28;4962552;28;20291;-65
2023/07/08 10:28:20;;;;;;;4.83;4.43;;;;;;;27.85;36.56;97241.72;4951176;28;20848;-65
2023/07/08 10:30:54;;;;;;;4.80;4.40;;;;;;;28.25;37.46;97236.75;4958631;28;20743;-63
2023/07/08 10:33:38;;;;;;;4.80;4.40;;;;;;;28.57;42.02;97237.81;4959420;28;20304;-64
2023/07/08 10:36:19;;;;;;;4.60;4.20;;;;;;;28.80;37.38;97229.81;4950662;28;20705;-64
2023/07/08 10:38:58;;;;;;;4.67;4.30;;;;;;;28.68;37.74;97232.19;4960698;28;20761;-64
2023/07/08 10:41:31;;;;;;;4.73;4.43;;;;;;;28.55;37.22;97240.03;4960756;28;20202;-64
2023/07/08 10:44:06;;;;;;;4.53;4.20;;;;;;;28.05;37.82;97237.06;4961789;28;20341;-64
2023/07/08 10:46:40;;;;;;;4.97;4.57;;;;;;;27.66;37.93;97239.81;4953176;28;20729;-63
2023/07/08 10:49:37;;;;;;;5.03;4.70;;;;;;;27.59;38.23;97245.63;4951461;28;20759;-64
2023/07/08 10:52:16;;;;;;;4.90;4.50;;;;;;;27.77;37.67;97247.81;4956693;28;20640;-67
2023/07/08 10:54:55;;;;;;;5.97;4.13;;;;;;;27.85;38.24;97247.19;4960755;28;20223;-64
2023/07/08 10:57:45;;;;;;;6.27;4.87;;;;;;;27.74;40.04;97246.50;4962211;28;20582;-67
2023/07/08 11:00:23;;;;;;;13.87;5.17;;;;;;;27.90;41.50;97244.38;4957100;28;20242;-63
2023/07/08 11:03:04;;;;;;;7.97;4.73;;;;;;;28.08;41.32;97231.00;4955390;28;20304;-63
2023/07/08 11:05:41;;;;;;;4.80;4.40;;;;;;;28.07;38.77;97238.38;4956555;28;20213;-63
2023/07/08 11:08:13;;;;;;;5.37;4.97;;;;;;;28.16;43.55;97238.53;4958898;28;20386;-63
2023/07/08 11:10:47;;;;;;;4.80;4.40;;;;;;;28.28;40.91;97233.44;4963322;28;20312;-65
2023/07/08 11:13:19;;;;;;;5.13;4.73;;;;;;;28.15;38.94;97235.00;4961501;28;20259;-64
2023/07/08 11:15:52;;;;;;;5.00;4.63;;;;;;;28.26;41.65;97229.38;4956977;28;20280;-65
2023/07/08 11:18:25;;;;;;;5.30;4.83;;;;;;;28.74;41.55;97229.06;4955365;28;20352;-64
2023/07/08 11:20:58;;;;;;;4.67;4.27;;;;;;;29.08;39.93;97226.25;4950491;28;20310;-66
2023/07/08 11:23:30;;;;;;;4.57;4.13;;;;;;;29.27;39.66;97226.13;4959534;28;20325;-63
2023/07/08 11:26:08;;;;;;;4.90;4.40;;;;;;;29.56;38.50;97225.00;4961784;28;20206;-65
2023/07/08 11:28:36;;;;;;;7.30;4.57;;;;;;;29.99;36.83;97229.19;4958331;28;20289;-65
2023/07/08 11:31:05;;;;;;;4.43;4.13;;;;;;;30.47;36.47;97233.19;4957201;28;20201;-64
2023/07/08 11:33:34;;;;;;;4.73;4.30;;;;;;;31.04;35.50;97234.44;4961163;28;20231;-67
2023/07/08 11:36:04;;;;;;;6.00;4.80;;;;;;;30.75;34.46;97222.94;4950214;28;20245;-63
2023/07/08 11:38:34;;;;;;;5.03;4.73;;;;;;;30.23;34.64;97228.91;4956762;28;20297;-64
2023/07/08 11:41:04;;;;;;;5.30;4.90;;;;;;;30.60;35.45;97220.59;4951062;28;20249;-64
2023/07/08 11:43:35;;;;;;;5.37;4.97;;;;;;;30.84;34.83;97214.75;4956874;28;20253;-62